^^
Station Historical Data
Daily Summary for December 07, 2018 Units:  Both    English   Metric
« Previous Day
Next Day »
Daily Weekly Monthly Yearly Custom
  High: Low: Average:
Temperature: 27.2 °F /  -2.7 °C 8.9 °F /  -12.8 °C 15.8 °F /  -9 °C
Dew Point: 17.7 °F /  -7.9 °C 6.3 °F /  -14.3 °C 11.4 °F /  -11.4 °C
Humidity: 89% 66% 83%
Wind Speed: 10mph /  16.1km/h - 5.1mph /  8.2km/h
Wind Gust: 12mph /  19.3km/h - -
Wind- - SSW
Pressure: 30.59 in /  1035.8 hPa 30.44 in /  1030.7 hPa -
Precipitation: 0 in /  0 mm    
Historical Graphs
 
 
Tabular Data for December 07, 2018
Time Temperature Dew Point Pressure Wind Wind Speed Wind Gust Humidity Rainfall Rate (Hourly) solar Conditions
00:04 13.3 °F /  -10.4 °C 8.6 °F /  -13 °C 30.46in /  1031.4hPa SSE 4mph /  6.4km/h 5mph /  8km/h 81% 0in /  0mm 0.00 W/m2
00:09 13.2 °F /  -10.4 °C 8.7 °F /  -12.9 °C 30.45in /  1031hPa SSE 5mph /  8km/h 6mph /  9.7km/h 82% 0in /  0mm 0.00 W/m2
00:14 13.1 °F /  -10.5 °C 8.6 °F /  -13 °C 30.45in /  1031hPa South 6mph /  9.7km/h 6mph /  9.7km/h 82% 0in /  0mm 0.00 W/m2
00:19 13.2 °F /  -10.4 °C 9 °F /  -12.8 °C 30.45in /  1031hPa South 3mph /  4.8km/h 8mph /  12.9km/h 83% 0in /  0mm 0.00 W/m2
00:24 13.1 °F /  -10.5 °C 8.9 °F /  -12.8 °C 30.45in /  1031hPa South 5mph /  8km/h 8mph /  12.9km/h 83% 0in /  0mm 0.00 W/m2
00:29 12.9 °F /  -10.6 °C 8.7 °F /  -12.9 °C 30.45in /  1031hPa South 5mph /  8km/h 7mph /  11.3km/h 83% 0in /  0mm 0.00 W/m2
00:34 12.9 °F /  -10.6 °C 9 °F /  -12.8 °C 30.45in /  1031hPa South 4mph /  6.4km/h 7mph /  11.3km/h 84% 0in /  0mm 0.00 W/m2
00:39 12.8 °F /  -10.7 °C 8.9 °F /  -12.8 °C 30.45in /  1031hPa SSW 4mph /  6.4km/h 7mph /  11.3km/h 84% 0in /  0mm 0.00 W/m2
00:44 12.7 °F /  -10.7 °C 8.8 °F /  -12.9 °C 30.45in /  1031hPa SSW 4mph /  6.4km/h 7mph /  11.3km/h 84% 0in /  0mm 0.00 W/m2
00:49 12.7 °F /  -10.7 °C 9 °F /  -12.8 °C 30.45in /  1031hPa SSW 5mph /  8km/h 7mph /  11.3km/h 85% 0in /  0mm 0.00 W/m2
00:54 12.7 °F /  -10.7 °C 9 °F /  -12.8 °C 30.45in /  1031hPa SW 3mph /  4.8km/h 6mph /  9.7km/h 85% 0in /  0mm 0.00 W/m2
00:59 12.8 °F /  -10.7 °C 9.4 °F /  -12.6 °C 30.45in /  1031hPa SW 3mph /  4.8km/h 6mph /  9.7km/h 86% 0in /  0mm 0.00 W/m2
01:04 12.8 °F /  -10.7 °C 9.4 °F /  -12.6 °C 30.45in /  1031hPa SW 3mph /  4.8km/h 6mph /  9.7km/h 86% 0in /  0mm 0.00 W/m2
01:09 12.6 °F /  -10.8 °C 9.2 °F /  -12.7 °C 30.45in /  1031hPa SW 3mph /  4.8km/h 6mph /  9.7km/h 86% 0in /  0mm 0.00 W/m2
01:14 12.4 °F /  -10.9 °C 9 °F /  -12.8 °C 30.44in /  1030.7hPa SW 5mph /  8km/h 5mph /  8km/h 86% 0in /  0mm 0.00 W/m2
01:19 12.3 °F /  -10.9 °C 8.9 °F /  -12.8 °C 30.44in /  1030.7hPa SW 4mph /  6.4km/h 6mph /  9.7km/h 86% 0in /  0mm 0.00 W/m2
01:24 12.2 °F /  -11 °C 8.8 °F /  -12.9 °C 30.44in /  1030.7hPa SW 3mph /  4.8km/h 6mph /  9.7km/h 86% 0in /  0mm 0.00 W/m2
01:29 12.1 °F /  -11.1 °C 8.7 °F /  -12.9 °C 30.44in /  1030.7hPa WSW 3mph /  4.8km/h 5mph /  8km/h 86% 0in /  0mm 0.00 W/m2
01:34 11.8 °F /  -11.2 °C 8.4 °F /  -13.1 °C 30.45in /  1031hPa WSW 4mph /  6.4km/h 5mph /  8km/h 86% 0in /  0mm 0.00 W/m2
01:39 11.7 °F /  -11.3 °C 8.6 °F /  -13 °C 30.45in /  1031hPa SW 4mph /  6.4km/h 5mph /  8km/h 87% 0in /  0mm 0.00 W/m2
01:44 11.5 °F /  -11.4 °C 8.4 °F /  -13.1 °C 30.45in /  1031hPa WSW 4mph /  6.4km/h 5mph /  8km/h 87% 0in /  0mm 0.00 W/m2
01:49 11.3 °F /  -11.5 °C 8.2 °F /  -13.2 °C 30.45in /  1031hPa WSW 3mph /  4.8km/h 5mph /  8km/h 87% 0in /  0mm 0.00 W/m2
01:54 11.1 °F /  -11.6 °C 8 °F /  -13.3 °C 30.45in /  1031hPa WSW 3mph /  4.8km/h 5mph /  8km/h 87% 0in /  0mm 0.00 W/m2
01:59 11 °F /  -11.7 °C 7.9 °F /  -13.4 °C 30.45in /  1031hPa SW 4mph /  6.4km/h 6mph /  9.7km/h 87% 0in /  0mm 0.00 W/m2
02:04 10.8 °F /  -11.8 °C 7.7 °F /  -13.5 °C 30.45in /  1031hPa WSW 4mph /  6.4km/h 7mph /  11.3km/h 87% 0in /  0mm 0.00 W/m2
02:09 10.5 °F /  -11.9 °C 7.4 °F /  -13.7 °C 30.45in /  1031hPa WSW 5mph /  8km/h 7mph /  11.3km/h 87% 0in /  0mm 0.00 W/m2
02:14 10.4 °F /  -12 °C 7.3 °F /  -13.7 °C 30.45in /  1031hPa WSW 5mph /  8km/h 6mph /  9.7km/h 87% 0in /  0mm 0.00 W/m2
02:19 10.5 °F /  -11.9 °C 7.6 °F /  -13.6 °C 30.45in /  1031hPa West 6mph /  9.7km/h 7mph /  11.3km/h 88% 0in /  0mm 0.00 W/m2
02:24 10.8 °F /  -11.8 °C 7.9 °F /  -13.4 °C 30.45in /  1031hPa West 6mph /  9.7km/h 7mph /  11.3km/h 88% 0in /  0mm 0.00 W/m2
02:29 11.2 °F /  -11.6 °C 8.3 °F /  -13.2 °C 30.45in /  1031hPa West 6mph /  9.7km/h 8mph /  12.9km/h 88% 0in /  0mm 0.00 W/m2
02:34 11.5 °F /  -11.4 °C 8.6 °F /  -13 °C 30.45in /  1031hPa West 5mph /  8km/h 8mph /  12.9km/h 88% 0in /  0mm 0.00 W/m2
02:39 11.6 °F /  -11.3 °C 8.7 °F /  -12.9 °C 30.46in /  1031.4hPa West 6mph /  9.7km/h 7mph /  11.3km/h 88% 0in /  0mm 0.00 W/m2
02:44 11.4 °F /  -11.4 °C 8.3 °F /  -13.2 °C 30.46in /  1031.4hPa West 5mph /  8km/h 7mph /  11.3km/h 87% 0in /  0mm 0.00 W/m2
02:49 11.2 °F /  -11.6 °C 8.1 °F /  -13.3 °C 30.46in /  1031.4hPa West 6mph /  9.7km/h 7mph /  11.3km/h 87% 0in /  0mm 0.00 W/m2
02:54 11 °F /  -11.7 °C 7.9 °F /  -13.4 °C 30.46in /  1031.4hPa West 4mph /  6.4km/h 7mph /  11.3km/h 87% 0in /  0mm 0.00 W/m2
02:59 10.8 °F /  -11.8 °C 7.7 °F /  -13.5 °C 30.46in /  1031.4hPa West 5mph /  8km/h 6mph /  9.7km/h 87% 0in /  0mm 0.00 W/m2
03:04 10.7 °F /  -11.8 °C 7.6 °F /  -13.6 °C 30.46in /  1031.4hPa West 4mph /  6.4km/h 5mph /  8km/h 87% 0in /  0mm 0.00 W/m2
03:09 10.6 °F /  -11.9 °C 7.5 °F /  -13.6 °C 30.46in /  1031.4hPa West 4mph /  6.4km/h 5mph /  8km/h 87% 0in /  0mm 0.00 W/m2
03:14 10.5 °F /  -11.9 °C 7.6 °F /  -13.6 °C 30.46in /  1031.4hPa West 3mph /  4.8km/h 5mph /  8km/h 88% 0in /  0mm 0.00 W/m2
03:19 10.4 °F /  -12 °C 7.6 °F /  -13.6 °C 30.46in /  1031.4hPa WNW 7mph /  11.3km/h 7mph /  11.3km/h 88% 0in /  0mm 0.00 W/m2
03:24 10.6 °F /  -11.9 °C 7.7 °F /  -13.5 °C 30.46in /  1031.4hPa WNW 5mph /  8km/h 7mph /  11.3km/h 88% 0in /  0mm 0.00 W/m2
03:29 10.8 °F /  -11.8 °C 7.9 °F /  -13.4 °C 30.47in /  1031.7hPa WNW 5mph /  8km/h 8mph /  12.9km/h 88% 0in /  0mm 0.00 W/m2
03:34 11.2 °F /  -11.6 °C 8.3 °F /  -13.2 °C 30.47in /  1031.7hPa WNW 8mph /  12.9km/h 10mph /  16.1km/h 88% 0in /  0mm 0.00 W/m2
03:39 11.8 °F /  -11.2 °C 8.9 °F /  -12.8 °C 30.47in /  1031.7hPa WNW 10mph /  16.1km/h 12mph /  19.3km/h 88% 0in /  0mm 0.00 W/m2
03:44 11.9 °F /  -11.2 °C 8.8 °F /  -12.9 °C 30.47in /  1031.7hPa West 10mph /  16.1km/h 12mph /  19.3km/h 87% 0in /  0mm 0.00 W/m2
03:49 11.7 °F /  -11.3 °C 8.6 °F /  -13 °C 30.47in /  1031.7hPa West 8mph /  12.9km/h 12mph /  19.3km/h 87% 0in /  0mm 0.00 W/m2
03:54 11.4 °F /  -11.4 °C 8.3 °F /  -13.2 °C 30.47in /  1031.7hPa West 8mph /  12.9km/h 11mph /  17.7km/h 87% 0in /  0mm 0.00 W/m2
03:59 11 °F /  -11.7 °C 7.9 °F /  -13.4 °C 30.47in /  1031.7hPa West 6mph /  9.7km/h 10mph /  16.1km/h 87% 0in /  0mm 0.00 W/m2
04:04 10.9 °F /  -11.7 °C 7.8 °F /  -13.4 °C 30.47in /  1031.7hPa West 5mph /  8km/h 9mph /  14.5km/h 87% 0in /  0mm 0.00 W/m2
04:09 10.7 °F /  -11.8 °C 7.6 °F /  -13.6 °C 30.47in /  1031.7hPa West 6mph /  9.7km/h 9mph /  14.5km/h 87% 0in /  0mm 0.00 W/m2
04:14 10.4 °F /  -12 °C 7.3 °F /  -13.7 °C 30.47in /  1031.7hPa West 6mph /  9.7km/h 7mph /  11.3km/h 87% 0in /  0mm 0.00 W/m2
04:19 10.1 °F /  -12.2 °C 7 °F /  -13.9 °C 30.47in /  1031.7hPa West 5mph /  8km/h 7mph /  11.3km/h 87% 0in /  0mm 0.00 W/m2
04:24 10.1 °F /  -12.2 °C 7 °F /  -13.9 °C 30.48in /  1032.1hPa WNW 7mph /  11.3km/h 7mph /  11.3km/h 87% 0in /  0mm 0.00 W/m2
04:29 10.2 °F /  -12.1 °C 7.4 °F /  -13.7 °C 30.47in /  1031.7hPa WNW 5mph /  8km/h 8mph /  12.9km/h 88% 0in /  0mm 0.00 W/m2
04:34 10.2 °F /  -12.1 °C 7.4 °F /  -13.7 °C 30.48in /  1032.1hPa WNW 6mph /  9.7km/h 8mph /  12.9km/h 88% 0in /  0mm 0.00 W/m2
04:39 10.2 °F /  -12.1 °C 7.4 °F /  -13.7 °C 30.48in /  1032.1hPa West 7mph /  11.3km/h 9mph /  14.5km/h 88% 0in /  0mm 0.00 W/m2
04:44 10.1 °F /  -12.2 °C 7.3 °F /  -13.7 °C 30.48in /  1032.1hPa WNW 7mph /  11.3km/h 9mph /  14.5km/h 88% 0in /  0mm 0.00 W/m2
04:49 10.1 °F /  -12.2 °C 7.3 °F /  -13.7 °C 30.48in /  1032.1hPa WNW 6mph /  9.7km/h 8mph /  12.9km/h 88% 0in /  0mm 0.00 W/m2
04:54 10 °F /  -12.2 °C 7.2 °F /  -13.8 °C 30.48in /  1032.1hPa West 6mph /  9.7km/h 8mph /  12.9km/h 88% 0in /  0mm 0.00 W/m2
04:59 9.9 °F /  -12.3 °C 7.1 °F /  -13.8 °C 30.48in /  1032.1hPa West 5mph /  8km/h 8mph /  12.9km/h 88% 0in /  0mm 0.00 W/m2
05:04 9.5 °F /  -12.5 °C 6.7 °F /  -14.1 °C 30.48in /  1032.1hPa West 4mph /  6.4km/h 7mph /  11.3km/h 88% 0in /  0mm 0.00 W/m2
05:09 9.3 °F /  -12.6 °C 6.5 °F /  -14.2 °C 30.48in /  1032.1hPa West 5mph /  8km/h 6mph /  9.7km/h 88% 0in /  0mm 0.00 W/m2
05:14 9.2 °F /  -12.7 °C 6.4 °F /  -14.2 °C 30.48in /  1032.1hPa West 5mph /  8km/h 6mph /  9.7km/h 88% 0in /  0mm 0.00 W/m2
05:19 9.2 °F /  -12.7 °C 6.4 °F /  -14.2 °C 30.48in /  1032.1hPa West 5mph /  8km/h 6mph /  9.7km/h 88% 0in /  0mm 0.00 W/m2
05:24 9.1 °F /  -12.7 °C 6.3 °F /  -14.3 °C 30.48in /  1032.1hPa West 5mph /  8km/h 6mph /  9.7km/h 88% 0in /  0mm 0.00 W/m2
05:29 9 °F /  -12.8 °C 6.4 °F /  -14.2 °C 30.48in /  1032.1hPa West 5mph /  8km/h 6mph /  9.7km/h 89% 0in /  0mm 0.00 W/m2
05:34 9.1 °F /  -12.7 °C 6.5 °F /  -14.2 °C 30.48in /  1032.1hPa West 6mph /  9.7km/h 7mph /  11.3km/h 89% 0in /  0mm 0.00 W/m2
05:39 9 °F /  -12.8 °C 6.4 °F /  -14.2 °C 30.48in /  1032.1hPa West 5mph /  8km/h 7mph /  11.3km/h 89% 0in /  0mm 0.00 W/m2
05:44 8.9 °F /  -12.8 °C 6.3 °F /  -14.3 °C 30.49in /  1032.4hPa West 6mph /  9.7km/h 7mph /  11.3km/h 89% 0in /  0mm 0.00 W/m2
05:49 8.9 °F /  -12.8 °C 6.3 °F /  -14.3 °C 30.49in /  1032.4hPa West 8mph /  12.9km/h 8mph /  12.9km/h 89% 0in /  0mm 0.00 W/m2
05:54 8.9 °F /  -12.8 °C 6.3 °F /  -14.3 °C 30.49in /  1032.4hPa West 8mph /  12.9km/h 9mph /  14.5km/h 89% 0in /  0mm 0.00 W/m2
05:59 9.3 °F /  -12.6 °C 6.7 °F /  -14.1 °C 30.49in /  1032.4hPa WNW 8mph /  12.9km/h 9mph /  14.5km/h 89% 0in /  0mm 0.00 W/m2
06:04 9.9 °F /  -12.3 °C 7.3 °F /  -13.7 °C 30.50in /  1032.7hPa WNW 7mph /  11.3km/h 10mph /  16.1km/h 89% 0in /  0mm 0.00 W/m2
06:09 9.9 °F /  -12.3 °C 7.3 °F /  -13.7 °C 30.50in /  1032.7hPa West 7mph /  11.3km/h 10mph /  16.1km/h 89% 0in /  0mm 0.00 W/m2
06:14 9.7 °F /  -12.4 °C 6.9 °F /  -13.9 °C 30.50in /  1032.7hPa WNW 7mph /  11.3km/h 9mph /  14.5km/h 88% 0in /  0mm 0.00 W/m2
06:19 9.6 °F /  -12.4 °C 6.8 °F /  -14 °C 30.51in /  1033.1hPa WNW 7mph /  11.3km/h 8mph /  12.9km/h 88% 0in /  0mm 0.00 W/m2
06:24 9.5 °F /  -12.5 °C 6.7 °F /  -14.1 °C 30.51in /  1033.1hPa WNW 5mph /  8km/h 8mph /  12.9km/h 88% 0in /  0mm 0.00 W/m2
06:29 9.4 °F /  -12.6 °C 6.6 °F /  -14.1 °C 30.51in /  1033.1hPa WNW 6mph /  9.7km/h 7mph /  11.3km/h 88% 0in /  0mm 0.00 W/m2
06:34 9.3 °F /  -12.6 °C 6.5 °F /  -14.2 °C 30.51in /  1033.1hPa WNW 5mph /  8km/h 8mph /  12.9km/h 88% 0in /  0mm 0.00 W/m2
06:39 9.2 °F /  -12.7 °C 6.4 °F /  -14.2 °C 30.51in /  1033.1hPa WNW 5mph /  8km/h 8mph /  12.9km/h 88% 0in /  0mm 0.00 W/m2
06:44 9.1 °F /  -12.7 °C 6.3 °F /  -14.3 °C 30.51in /  1033.1hPa WNW 5mph /  8km/h 7mph /  11.3km/h 88% 0in /  0mm 0.00 W/m2
06:49 9.2 °F /  -12.7 °C 6.6 °F /  -14.1 °C 30.51in /  1033.1hPa WNW 5mph /  8km/h 7mph /  11.3km/h 89% 0in /  0mm 0.00 W/m2
06:54 9.6 °F /  -12.4 °C 7 °F /  -13.9 °C 30.51in /  1033.1hPa WNW 6mph /  9.7km/h 8mph /  12.9km/h 89% 0in /  0mm 0.00 W/m2
06:59 9.7 °F /  -12.4 °C 7.1 °F /  -13.8 °C 30.52in /  1033.4hPa WNW 7mph /  11.3km/h 8mph /  12.9km/h 89% 0in /  0mm 0.00 W/m2
07:04 9.5 °F /  -12.5 °C 6.9 °F /  -13.9 °C 30.52in /  1033.4hPa WNW 6mph /  9.7km/h 8mph /  12.9km/h 89% 0in /  0mm 0.00 W/m2
07:09 9.4 °F /  -12.6 °C 6.6 °F /  -14.1 °C 30.52in /  1033.4hPa WNW 4mph /  6.4km/h 8mph /  12.9km/h 88% 0in /  0mm 0.00 W/m2
07:14 9.4 °F /  -12.6 °C 6.8 °F /  -14 °C 30.53in /  1033.7hPa WNW 5mph /  8km/h 8mph /  12.9km/h 89% 0in /  0mm 0.00 W/m2
07:19 9.7 °F /  -12.4 °C 7.1 °F /  -13.8 °C 30.53in /  1033.7hPa WNW 3mph /  4.8km/h 7mph /  11.3km/h 89% 0in /  0mm 0.00 W/m2
07:24 10.1 °F /  -12.2 °C 7.5 °F /  -13.6 °C 30.53in /  1033.7hPa WNW 5mph /  8km/h 7mph /  11.3km/h 89% 0in /  0mm 0.00 W/m2
07:29 10.7 °F /  -11.8 °C 8.1 °F /  -13.3 °C 30.53in /  1033.7hPa WNW 3mph /  4.8km/h 7mph /  11.3km/h 89% 0in /  0mm 0.00 W/m2
07:34 11.1 °F /  -11.6 °C 8.5 °F /  -13.1 °C 30.53in /  1033.7hPa West 5mph /  8km/h 7mph /  11.3km/h 89% 0in /  0mm 0.00 W/m2
07:39 11.5 °F /  -11.4 °C 8.9 °F /  -12.8 °C 30.53in /  1033.7hPa West 4mph /  6.4km/h 7mph /  11.3km/h 89% 0in /  0mm 0.00 W/m2
07:44 11.6 °F /  -11.3 °C 9 °F /  -12.8 °C 30.53in /  1033.7hPa WNW 7mph /  11.3km/h 8mph /  12.9km/h 89% 0in /  0mm 0.00 W/m2
07:49 11.7 °F /  -11.3 °C 9.1 °F /  -12.7 °C 30.53in /  1033.7hPa West 3mph /  4.8km/h 8mph /  12.9km/h 89% 0in /  0mm 0.00 W/m2
07:54 10.9 °F /  -11.7 °C 8 °F /  -13.3 °C 30.54in /  1034.1hPa WSW 3mph /  4.8km/h 7mph /  11.3km/h 88% 0in /  0mm 0.00 W/m2
07:59 10.6 °F /  -11.9 °C 7.7 °F /  -13.5 °C 30.54in /  1034.1hPa WSW 3mph /  4.8km/h 5mph /  8km/h 88% 0in /  0mm 0.00 W/m2
08:04 10.4 °F /  -12 °C 7.6 °F /  -13.6 °C 30.54in /  1034.1hPa WSW 5mph /  8km/h 6mph /  9.7km/h 88% 0in /  0mm 0.00 W/m2
08:09 10.4 °F /  -12 °C 7.6 °F /  -13.6 °C 30.54in /  1034.1hPa West 5mph /  8km/h 6mph /  9.7km/h 88% 0in /  0mm 0.00 W/m2
08:14 10.5 °F /  -11.9 °C 7.9 °F /  -13.4 °C 30.54in /  1034.1hPa West 4mph /  6.4km/h 6mph /  9.7km/h 89% 0in /  0mm 5.00 W/m2
08:19 10.6 °F /  -11.9 °C 8 °F /  -13.3 °C 30.54in /  1034.1hPa West 4mph /  6.4km/h 5mph /  8km/h 89% 0in /  0mm 5.00 W/m2
08:24 10.5 °F /  -11.9 °C 7.9 °F /  -13.4 °C 30.54in /  1034.1hPa WSW 5mph /  8km/h 6mph /  9.7km/h 89% 0in /  0mm 7.00 W/m2
08:29 10.5 °F /  -11.9 °C 7.9 °F /  -13.4 °C 30.54in /  1034.1hPa WSW 5mph /  8km/h 6mph /  9.7km/h 89% 0in /  0mm 11.00 W/m2
08:34 10.5 °F /  -11.9 °C 7.9 °F /  -13.4 °C 30.54in /  1034.1hPa WSW 5mph /  8km/h 7mph /  11.3km/h 89% 0in /  0mm 14.00 W/m2
08:39 10.4 °F /  -12 °C 7.8 °F /  -13.4 °C 30.54in /  1034.1hPa WSW 4mph /  6.4km/h 8mph /  12.9km/h 89% 0in /  0mm 23.00 W/m2
08:44 10.3 °F /  -12.1 °C 7.7 °F /  -13.5 °C 30.54in /  1034.1hPa WSW 5mph /  8km/h 8mph /  12.9km/h 89% 0in /  0mm 21.00 W/m2
08:49 10.3 °F /  -12.1 °C 7.7 °F /  -13.5 °C 30.54in /  1034.1hPa WSW 6mph /  9.7km/h 7mph /  11.3km/h 89% 0in /  0mm 25.00 W/m2
08:54 10.3 °F /  -12.1 °C 7.7 °F /  -13.5 °C 30.54in /  1034.1hPa West 5mph /  8km/h 7mph /  11.3km/h 89% 0in /  0mm 28.00 W/m2
08:59 10.2 °F /  -12.1 °C 7.4 °F /  -13.7 °C 30.55in /  1034.4hPa West 7mph /  11.3km/h 8mph /  12.9km/h 88% 0in /  0mm 42.00 W/m2
09:04 10.3 °F /  -12.1 °C 7.5 °F /  -13.6 °C 30.55in /  1034.4hPa West 5mph /  8km/h 10mph /  16.1km/h 88% 0in /  0mm 42.00 W/m2
09:09 10.3 °F /  -12.1 °C 7.5 °F /  -13.6 °C 30.55in /  1034.4hPa WSW 6mph /  9.7km/h 10mph /  16.1km/h 88% 0in /  0mm 53.00 W/m2
09:14 10.2 °F /  -12.1 °C 7.4 °F /  -13.7 °C 30.55in /  1034.4hPa West 4mph /  6.4km/h 7mph /  11.3km/h 88% 0in /  0mm 56.00 W/m2
09:19 10.1 °F /  -12.2 °C 7.3 °F /  -13.7 °C 30.56in /  1034.8hPa West 5mph /  8km/h 7mph /  11.3km/h 88% 0in /  0mm 53.00 W/m2
09:24 10 °F /  -12.2 °C 7.2 °F /  -13.8 °C 30.56in /  1034.8hPa West 4mph /  6.4km/h 7mph /  11.3km/h 88% 0in /  0mm 81.00 W/m2
09:29 10 °F /  -12.2 °C 7.2 °F /  -13.8 °C 30.57in /  1035.1hPa WNW 2mph /  3.2km/h 7mph /  11.3km/h 88% 0in /  0mm 86.00 W/m2
09:34 10 °F /  -12.2 °C 7.2 °F /  -13.8 °C 30.57in /  1035.1hPa WNW 3mph /  4.8km/h 5mph /  8km/h 88% 0in /  0mm 97.00 W/m2
09:39 10.2 °F /  -12.1 °C 7.4 °F /  -13.7 °C 30.57in /  1035.1hPa WNW 3mph /  4.8km/h 5mph /  8km/h 88% 0in /  0mm 107.00 W/m2
09:44 10.5 °F /  -11.9 °C 7.6 °F /  -13.6 °C 30.57in /  1035.1hPa WNW 5mph /  8km/h 5mph /  8km/h 88% 0in /  0mm 116.00 W/m2
09:49 10.7 °F /  -11.8 °C 7.6 °F /  -13.6 °C 30.57in /  1035.1hPa NW 6mph /  9.7km/h 6mph /  9.7km/h 87% 0in /  0mm 128.00 W/m2
09:54 11.1 °F /  -11.6 °C 8 °F /  -13.3 °C 30.57in /  1035.1hPa NW 5mph /  8km/h 7mph /  11.3km/h 87% 0in /  0mm 141.00 W/m2
09:59 11.4 °F /  -11.4 °C 8.3 °F /  -13.2 °C 30.57in /  1035.1hPa WNW 6mph /  9.7km/h 8mph /  12.9km/h 87% 0in /  0mm 151.00 W/m2
10:04 11.6 °F /  -11.3 °C 8.5 °F /  -13.1 °C 30.57in /  1035.1hPa NW 4mph /  6.4km/h 8mph /  12.9km/h 87% 0in /  0mm 163.00 W/m2
10:09 11.9 °F /  -11.2 °C 8.8 °F /  -12.9 °C 30.57in /  1035.1hPa WNW 6mph /  9.7km/h 7mph /  11.3km/h 87% 0in /  0mm 178.00 W/m2
10:14 12.2 °F /  -11 °C 9.1 °F /  -12.7 °C 30.58in /  1035.4hPa WNW 5mph /  8km/h 6mph /  9.7km/h 87% 0in /  0mm 192.00 W/m2
10:19 12.5 °F /  -10.8 °C 9.4 °F /  -12.6 °C 30.58in /  1035.4hPa WNW 4mph /  6.4km/h 6mph /  9.7km/h 87% 0in /  0mm 204.00 W/m2
10:24 12.7 °F /  -10.7 °C 9.6 °F /  -12.4 °C 30.58in /  1035.4hPa WNW 3mph /  4.8km/h 6mph /  9.7km/h 87% 0in /  0mm 216.00 W/m2
10:29 12.9 °F /  -10.6 °C 9.5 °F /  -12.5 °C 30.58in /  1035.4hPa WNW 2mph /  3.2km/h 5mph /  8km/h 86% 0in /  0mm 229.00 W/m2
10:34 13.2 °F /  -10.4 °C 10.1 °F /  -12.2 °C 30.59in /  1035.8hPa West 3mph /  4.8km/h 5mph /  8km/h 87% 0in /  0mm 237.00 W/m2
10:39 13.6 °F /  -10.2 °C 10.5 °F /  -11.9 °C 30.59in /  1035.8hPa West 2mph /  3.2km/h 5mph /  8km/h 87% 0in /  0mm 250.00 W/m2
10:44 14 °F /  -10 °C 10.8 °F /  -11.8 °C 30.59in /  1035.8hPa West 3mph /  4.8km/h 4mph /  6.4km/h 87% 0in /  0mm 262.00 W/m2
10:49 14.5 °F /  -9.7 °C 11.1 °F /  -11.6 °C 30.59in /  1035.8hPa West 4mph /  6.4km/h 5mph /  8km/h 86% 0in /  0mm 272.00 W/m2
10:54 14.8 °F /  -9.6 °C 11.4 °F /  -11.4 °C 30.59in /  1035.8hPa WSW 4mph /  6.4km/h 7mph /  11.3km/h 86% 0in /  0mm 281.00 W/m2
10:59 15.1 °F /  -9.4 °C 11.7 °F /  -11.3 °C 30.59in /  1035.8hPa WSW 6mph /  9.7km/h 7mph /  11.3km/h 86% 0in /  0mm 290.00 W/m2
11:04 15.4 °F /  -9.2 °C 12 °F /  -11.1 °C 30.59in /  1035.8hPa West 6mph /  9.7km/h 7mph /  11.3km/h 86% 0in /  0mm 297.00 W/m2
11:09 15.6 °F /  -9.1 °C 12.2 °F /  -11 °C 30.59in /  1035.8hPa West 5mph /  8km/h 7mph /  11.3km/h 86% 0in /  0mm 304.00 W/m2
11:14 15.9 °F /  -8.9 °C 12.2 °F /  -11 °C 30.59in /  1035.8hPa West 7mph /  11.3km/h 9mph /  14.5km/h 85% 0in /  0mm 311.00 W/m2
11:19 16.1 °F /  -8.8 °C 12.4 °F /  -10.9 °C 30.59in /  1035.8hPa West 7mph /  11.3km/h 9mph /  14.5km/h 85% 0in /  0mm 316.00 W/m2
11:24 16.4 °F /  -8.7 °C 12.7 °F /  -10.7 °C 30.59in /  1035.8hPa West 6mph /  9.7km/h 8mph /  12.9km/h 85% 0in /  0mm 320.00 W/m2
11:29 16.6 °F /  -8.6 °C 12.6 °F /  -10.8 °C 30.59in /  1035.8hPa West 4mph /  6.4km/h 8mph /  12.9km/h 84% 0in /  0mm 323.00 W/m2
11:34 17 °F /  -8.3 °C 13.3 °F /  -10.4 °C 30.59in /  1035.8hPa SW 3mph /  4.8km/h 6mph /  9.7km/h 85% 0in /  0mm 329.00 W/m2
11:39 17.3 °F /  -8.2 °C 13.3 °F /  -10.4 °C 30.59in /  1035.8hPa WSW 4mph /  6.4km/h 6mph /  9.7km/h 84% 0in /  0mm 332.00 W/m2
11:44 17.4 °F /  -8.1 °C 13.1 °F /  -10.5 °C 30.59in /  1035.8hPa WSW 6mph /  9.7km/h 7mph /  11.3km/h 83% 0in /  0mm 338.00 W/m2
11:49 17.6 °F /  -8 °C 13.3 °F /  -10.4 °C 30.59in /  1035.8hPa SW 6mph /  9.7km/h 7mph /  11.3km/h 83% 0in /  0mm 339.00 W/m2
11:54 17.9 °F /  -7.8 °C 13.6 °F /  -10.2 °C 30.58in /  1035.4hPa WSW 6mph /  9.7km/h 8mph /  12.9km/h 83% 0in /  0mm 339.00 W/m2
11:59 18.1 °F /  -7.7 °C 13.5 °F /  -10.3 °C 30.58in /  1035.4hPa West 4mph /  6.4km/h 8mph /  12.9km/h 82% 0in /  0mm 343.00 W/m2
12:04 18.5 °F /  -7.5 °C 13.9 °F /  -10.1 °C 30.58in /  1035.4hPa WSW 5mph /  8km/h 7mph /  11.3km/h 82% 0in /  0mm 345.00 W/m2
12:09 19 °F /  -7.2 °C 14.4 °F /  -9.8 °C 30.58in /  1035.4hPa WSW 4mph /  6.4km/h 7mph /  11.3km/h 82% 0in /  0mm 348.00 W/m2
12:14 19.4 °F /  -7 °C 14.5 °F /  -9.7 °C 30.58in /  1035.4hPa SW 2mph /  3.2km/h 7mph /  11.3km/h 81% 0in /  0mm 350.00 W/m2
12:19 20.3 °F /  -6.5 °C 15.4 °F /  -9.2 °C 30.58in /  1035.4hPa SSW 2mph /  3.2km/h 6mph /  9.7km/h 81% 0in /  0mm 352.00 W/m2
12:24 20.3 °F /  -6.5 °C 14.5 °F /  -9.7 °C 30.57in /  1035.1hPa SW 4mph /  6.4km/h 6mph /  9.7km/h 78% 0in /  0mm 352.00 W/m2
12:29 20.6 °F /  -6.3 °C 15.1 °F /  -9.4 °C 30.57in /  1035.1hPa SW 2mph /  3.2km/h 5mph /  8km/h 79% 0in /  0mm 355.00 W/m2
12:34 21 °F /  -6.1 °C 15.2 °F /  -9.3 °C 30.57in /  1035.1hPa SW 3mph /  4.8km/h 5mph /  8km/h 78% 0in /  0mm 353.00 W/m2
12:39 21.5 °F /  -5.8 °C 15.4 °F /  -9.2 °C 30.57in /  1035.1hPa SSW 4mph /  6.4km/h 6mph /  9.7km/h 77% 0in /  0mm 355.00 W/m2
12:44 21.4 °F /  -5.9 °C 15.3 °F /  -9.3 °C 30.57in /  1035.1hPa SW 5mph /  8km/h 7mph /  11.3km/h 77% 0in /  0mm 355.00 W/m2
12:49 21.6 °F /  -5.8 °C 15.5 °F /  -9.2 °C 30.57in /  1035.1hPa SSW 3mph /  4.8km/h 7mph /  11.3km/h 77% 0in /  0mm 355.00 W/m2
12:54 21.5 °F /  -5.8 °C 15.1 °F /  -9.4 °C 30.57in /  1035.1hPa SW 3mph /  4.8km/h 7mph /  11.3km/h 76% 0in /  0mm 353.00 W/m2
12:59 22.2 °F /  -5.4 °C 16.1 °F /  -8.8 °C 30.56in /  1034.8hPa SSW 4mph /  6.4km/h 7mph /  11.3km/h 77% 0in /  0mm 352.00 W/m2
13:04 22.2 °F /  -5.4 °C 15.5 °F /  -9.2 °C 30.56in /  1034.8hPa SW 7mph /  11.3km/h 8mph /  12.9km/h 75% 0in /  0mm 352.00 W/m2
13:09 22.5 °F /  -5.3 °C 16.1 °F /  -8.8 °C 30.56in /  1034.8hPa SW 5mph /  8km/h 8mph /  12.9km/h 76% 0in /  0mm 348.00 W/m2
13:14 22.6 °F /  -5.2 °C 15.9 °F /  -8.9 °C 30.56in /  1034.8hPa SSW 2mph /  3.2km/h 7mph /  11.3km/h 75% 0in /  0mm 345.00 W/m2
13:19 22.8 °F /  -5.1 °C 16.1 °F /  -8.8 °C 30.56in /  1034.8hPa SSW 7mph /  11.3km/h 8mph /  12.9km/h 75% 0in /  0mm 343.00 W/m2
13:24 23.2 °F /  -4.9 °C 16.4 °F /  -8.7 °C 30.56in /  1034.8hPa SW 4mph /  6.4km/h 8mph /  12.9km/h 75% 0in /  0mm 339.00 W/m2
13:29 23.2 °F /  -4.9 °C 16.1 °F /  -8.8 °C 30.56in /  1034.8hPa SW 7mph /  11.3km/h 9mph /  14.5km/h 74% 0in /  0mm 336.00 W/m2
13:34 23.1 °F /  -4.9 °C 16 °F /  -8.9 °C 30.56in /  1034.8hPa SSW 5mph /  8km/h 9mph /  14.5km/h 74% 0in /  0mm 332.00 W/m2
13:39 23.7 °F /  -4.6 °C 16.6 °F /  -8.6 °C 30.56in /  1034.8hPa WSW 7mph /  11.3km/h 7mph /  11.3km/h 74% 0in /  0mm 329.00 W/m2
13:44 23.2 °F /  -4.9 °C 15.8 °F /  -9 °C 30.55in /  1034.4hPa SSW 3mph /  4.8km/h 7mph /  11.3km/h 73% 0in /  0mm 323.00 W/m2
13:49 23.4 °F /  -4.8 °C 16 °F /  -8.9 °C 30.55in /  1034.4hPa SW 5mph /  8km/h 7mph /  11.3km/h 73% 0in /  0mm 320.00 W/m2
13:54 23.3 °F /  -4.8 °C 15.9 °F /  -8.9 °C 30.55in /  1034.4hPa SW 4mph /  6.4km/h 6mph /  9.7km/h 73% 0in /  0mm 311.00 W/m2
13:59 23.6 °F /  -4.7 °C 16.5 °F /  -8.6 °C 30.55in /  1034.4hPa SW 2mph /  3.2km/h 6mph /  9.7km/h 74% 0in /  0mm 306.00 W/m2
14:04 24.2 °F /  -4.3 °C 16.8 °F /  -8.4 °C 30.55in /  1034.4hPa SSW 3mph /  4.8km/h 7mph /  11.3km/h 73% 0in /  0mm 301.00 W/m2
14:09 24.3 °F /  -4.3 °C 16.6 °F /  -8.6 °C 30.55in /  1034.4hPa WSW 5mph /  8km/h 7mph /  11.3km/h 72% 0in /  0mm 294.00 W/m2
14:14 24 °F /  -4.4 °C 16.3 °F /  -8.7 °C 30.55in /  1034.4hPa SW 3mph /  4.8km/h 7mph /  11.3km/h 72% 0in /  0mm 287.00 W/m2
14:19 24 °F /  -4.4 °C 16.3 °F /  -8.7 °C 30.55in /  1034.4hPa WSW 4mph /  6.4km/h 7mph /  11.3km/h 72% 0in /  0mm 278.00 W/m2
14:24 24.1 °F /  -4.4 °C 16.4 °F /  -8.7 °C 30.55in /  1034.4hPa WSW 5mph /  8km/h 6mph /  9.7km/h 72% 0in /  0mm 269.00 W/m2
14:29 24.7 °F /  -4.1 °C 17 °F /  -8.3 °C 30.55in /  1034.4hPa SSW 2mph /  3.2km/h 6mph /  9.7km/h 72% 0in /  0mm 260.00 W/m2
14:34 25 °F /  -3.9 °C 16.6 °F /  -8.6 °C 30.55in /  1034.4hPa SW 2mph /  3.2km/h 6mph /  9.7km/h 70% 0in /  0mm 251.00 W/m2
14:39 24.8 °F /  -4 °C 16.4 °F /  -8.7 °C 30.54in /  1034.1hPa SW 3mph /  4.8km/h 5mph /  8km/h 70% 0in /  0mm 239.00 W/m2
14:44 25 °F /  -3.9 °C 16.6 °F /  -8.6 °C 30.54in /  1034.1hPa WSW 1mph /  1.6km/h 6mph /  9.7km/h 70% 0in /  0mm 229.00 W/m2
14:49 25.4 °F /  -3.7 °C 17.3 °F /  -8.2 °C 30.55in /  1034.4hPa South 2mph /  3.2km/h 6mph /  9.7km/h 71% 0in /  0mm 218.00 W/m2
14:54 26.1 °F /  -3.3 °C 17.6 °F /  -8 °C 30.55in /  1034.4hPa South 2mph /  3.2km/h 6mph /  9.7km/h 70% 0in /  0mm 206.00 W/m2
14:59 26.4 °F /  -3.1 °C 17.6 °F /  -8 °C 30.55in /  1034.4hPa South 3mph /  4.8km/h 5mph /  8km/h 69% 0in /  0mm 197.00 W/m2
15:04 26.5 °F /  -3.1 °C 17.4 °F /  -8.1 °C 30.55in /  1034.4hPa SSW 3mph /  4.8km/h 5mph /  8km/h 68% 0in /  0mm 183.00 W/m2
15:09 26.9 °F /  -2.8 °C 17.7 °F /  -7.9 °C 30.54in /  1034.1hPa SSW 3mph /  4.8km/h 5mph /  8km/h 68% 0in /  0mm 171.00 W/m2
15:14 27 °F /  -2.8 °C 17.5 °F /  -8.1 °C 30.54in /  1034.1hPa SW 3mph /  4.8km/h 4mph /  6.4km/h 67% 0in /  0mm 158.00 W/m2
15:19 27.2 °F /  -2.7 °C 17.7 °F /  -7.9 °C 30.54in /  1034.1hPa South 4mph /  6.4km/h 5mph /  8km/h 67% 0in /  0mm 144.00 W/m2
15:24 27.2 °F /  -2.7 °C 17.3 °F /  -8.2 °C 30.54in /  1034.1hPa SSW 5mph /  8km/h 6mph /  9.7km/h 66% 0in /  0mm 135.00 W/m2
15:29 27.2 °F /  -2.7 °C 17.3 °F /  -8.2 °C 30.54in /  1034.1hPa SSW 7mph /  11.3km/h 7mph /  11.3km/h 66% 0in /  0mm 121.00 W/m2
15:34 27.1 °F /  -2.7 °C 17.2 °F /  -8.2 °C 30.54in /  1034.1hPa SSW 3mph /  4.8km/h 7mph /  11.3km/h 66% 0in /  0mm 111.00 W/m2
15:39 27 °F /  -2.8 °C 17.1 °F /  -8.3 °C 30.54in /  1034.1hPa South 5mph /  8km/h 7mph /  11.3km/h 66% 0in /  0mm 98.00 W/m2
15:44 26.8 °F /  -2.9 °C 17 °F /  -8.3 °C 30.54in /  1034.1hPa SSW 5mph /  8km/h 7mph /  11.3km/h 66% 0in /  0mm 88.00 W/m2
15:49 26.8 °F /  -2.9 °C 17.3 °F /  -8.2 °C 30.54in /  1034.1hPa South 4mph /  6.4km/h 7mph /  11.3km/h 67% 0in /  0mm 77.00 W/m2
15:54 26.8 °F /  -2.9 °C 17 °F /  -8.3 °C 30.54in /  1034.1hPa SSW 5mph /  8km/h 7mph /  11.3km/h 66% 0in /  0mm 67.00 W/m2
15:59 26.6 °F /  -3 °C 16.8 °F /  -8.4 °C 30.54in /  1034.1hPa South 4mph /  6.4km/h 7mph /  11.3km/h 66% 0in /  0mm 58.00 W/m2
16:04 26.2 °F /  -3.2 °C 16.4 °F /  -8.7 °C 30.54in /  1034.1hPa South 4mph /  6.4km/h 7mph /  11.3km/h 66% 0in /  0mm 47.00 W/m2
16:09 25.9 °F /  -3.4 °C 16.4 °F /  -8.7 °C 30.54in /  1034.1hPa South 5mph /  8km/h 8mph /  12.9km/h 67% 0in /  0mm 39.00 W/m2
16:14 25.7 °F /  -3.5 °C 16.6 °F /  -8.6 °C 30.54in /  1034.1hPa South 4mph /  6.4km/h 8mph /  12.9km/h 68% 0in /  0mm 30.00 W/m2
16:19 25.5 °F /  -3.6 °C 16.4 °F /  -8.7 °C 30.54in /  1034.1hPa South 4mph /  6.4km/h 7mph /  11.3km/h 68% 0in /  0mm 25.00 W/m2
16:24 25.3 °F /  -3.7 °C 16.5 °F /  -8.6 °C 30.54in /  1034.1hPa South 4mph /  6.4km/h 7mph /  11.3km/h 69% 0in /  0mm 21.00 W/m2
16:29 25.1 °F /  -3.8 °C 16.4 °F /  -8.7 °C 30.54in /  1034.1hPa South 4mph /  6.4km/h 6mph /  9.7km/h 69% 0in /  0mm 18.00 W/m2
16:34 24.8 °F /  -4 °C 16.1 °F /  -8.8 °C 30.55in /  1034.4hPa South 3mph /  4.8km/h 6mph /  9.7km/h 69% 0in /  0mm 16.00 W/m2
16:39 24.5 °F /  -4.2 °C 15.8 °F /  -9 °C 30.55in /  1034.4hPa South 3mph /  4.8km/h 5mph /  8km/h 69% 0in /  0mm 14.00 W/m2
16:44 24.1 °F /  -4.4 °C 15.7 °F /  -9.1 °C 30.55in /  1034.4hPa South 2mph /  3.2km/h 5mph /  8km/h 70% 0in /  0mm 12.00 W/m2
16:49 23.7 °F /  -4.6 °C 15.3 °F /  -9.3 °C 30.55in /  1034.4hPa South 3mph /  4.8km/h 4mph /  6.4km/h 70% 0in /  0mm 9.00 W/m2
16:54 23.2 °F /  -4.9 °C 15.2 °F /  -9.3 °C 30.55in /  1034.4hPa South 4mph /  6.4km/h 5mph /  8km/h 71% 0in /  0mm 7.00 W/m2
16:59 22.9 °F /  -5.1 °C 15.2 °F /  -9.3 °C 30.55in /  1034.4hPa South 3mph /  4.8km/h 5mph /  8km/h 72% 0in /  0mm 5.00 W/m2
17:04 22.6 °F /  -5.2 °C 15.2 °F /  -9.3 °C 30.55in /  1034.4hPa South 3mph /  4.8km/h 5mph /  8km/h 73% 0in /  0mm 0.00 W/m2
17:09 22.4 °F /  -5.3 °C 15.1 °F /  -9.4 °C 30.55in /  1034.4hPa South 3mph /  4.8km/h 5mph /  8km/h 73% 0in /  0mm 0.00 W/m2
17:14 22.1 °F /  -5.5 °C 15.1 °F /  -9.4 °C 30.55in /  1034.4hPa SSE 3mph /  4.8km/h 4mph /  6.4km/h 74% 0in /  0mm 0.00 W/m2
17:19 21.8 °F /  -5.7 °C 14.8 °F /  -9.6 °C 30.55in /  1034.4hPa SSE 4mph /  6.4km/h 4mph /  6.4km/h 74% 0in /  0mm 0.00 W/m2
17:24 21.6 °F /  -5.8 °C 14.9 °F /  -9.5 °C 30.55in /  1034.4hPa SE 4mph /  6.4km/h 5mph /  8km/h 75% 0in /  0mm 0.00 W/m2
17:29 21.4 °F /  -5.9 °C 14.7 °F /  -9.6 °C 30.55in /  1034.4hPa SE 5mph /  8km/h 5mph /  8km/h 75% 0in /  0mm 0.00 W/m2
17:34 21.3 °F /  -5.9 °C 14.6 °F /  -9.7 °C 30.55in /  1034.4hPa ESE 4mph /  6.4km/h 5mph /  8km/h 75% 0in /  0mm 0.00 W/m2
17:39 21 °F /  -6.1 °C 14.3 °F /  -9.8 °C 30.55in /  1034.4hPa ESE 4mph /  6.4km/h 5mph /  8km/h 75% 0in /  0mm 0.00 W/m2
17:44 20.7 °F /  -6.3 °C 14.3 °F /  -9.8 °C 30.55in /  1034.4hPa ESE 4mph /  6.4km/h 5mph /  8km/h 76% 0in /  0mm 0.00 W/m2
17:49 20.5 °F /  -6.4 °C 14.1 °F /  -9.9 °C 30.54in /  1034.1hPa ESE 5mph /  8km/h 5mph /  8km/h 76% 0in /  0mm 0.00 W/m2
17:54 20.4 °F /  -6.4 °C 14 °F /  -10 °C 30.54in /  1034.1hPa ESE 4mph /  6.4km/h 7mph /  11.3km/h 76% 0in /  0mm 0.00 W/m2
17:59 20.2 °F /  -6.6 °C 14.1 °F /  -9.9 °C 30.54in /  1034.1hPa ESE 5mph /  8km/h 7mph /  11.3km/h 77% 0in /  0mm 0.00 W/m2
18:04 20.1 °F /  -6.6 °C 14 °F /  -10 °C 30.55in /  1034.4hPa ESE 5mph /  8km/h 7mph /  11.3km/h 77% 0in /  0mm 0.00 W/m2
18:09 19.9 °F /  -6.7 °C 13.9 °F /  -10.1 °C 30.55in /  1034.4hPa ESE 5mph /  8km/h 7mph /  11.3km/h 77% 0in /  0mm 0.00 W/m2
18:14 19.7 °F /  -6.8 °C 14 °F /  -10 °C 30.55in /  1034.4hPa ESE 5mph /  8km/h 7mph /  11.3km/h 78% 0in /  0mm 0.00 W/m2
18:19 19.5 °F /  -6.9 °C 13.8 °F /  -10.1 °C 30.55in /  1034.4hPa ESE 5mph /  8km/h 7mph /  11.3km/h 78% 0in /  0mm 0.00 W/m2
18:24 19.2 °F /  -7.1 °C 13.5 °F /  -10.3 °C 30.54in /  1034.1hPa ESE 4mph /  6.4km/h 7mph /  11.3km/h 78% 0in /  0mm 0.00 W/m2
18:29 19 °F /  -7.2 °C 13.3 °F /  -10.4 °C 30.55in /  1034.4hPa ESE 5mph /  8km/h 7mph /  11.3km/h 78% 0in /  0mm 0.00 W/m2
18:34 18.6 °F /  -7.4 °C 13.2 °F /  -10.4 °C 30.54in /  1034.1hPa ESE 7mph /  11.3km/h 7mph /  11.3km/h 79% 0in /  0mm 0.00 W/m2
18:39 18.3 °F /  -7.6 °C 12.9 °F /  -10.6 °C 30.54in /  1034.1hPa ESE 5mph /  8km/h 7mph /  11.3km/h 79% 0in /  0mm 0.00 W/m2
18:44 18 °F /  -7.8 °C 12.9 °F /  -10.6 °C 30.55in /  1034.4hPa ESE 4mph /  6.4km/h 8mph /  12.9km/h 80% 0in /  0mm 0.00 W/m2
18:49 17.7 °F /  -7.9 °C 12.9 °F /  -10.6 °C 30.54in /  1034.1hPa ESE 4mph /  6.4km/h 8mph /  12.9km/h 81% 0in /  0mm 0.00 W/m2
18:54 17.6 °F /  -8 °C 12.8 °F /  -10.7 °C 30.55in /  1034.4hPa ESE 4mph /  6.4km/h 7mph /  11.3km/h 81% 0in /  0mm 0.00 W/m2
18:59 17.3 °F /  -8.2 °C 12.5 °F /  -10.8 °C 30.54in /  1034.1hPa ESE 7mph /  11.3km/h 7mph /  11.3km/h 81% 0in /  0mm 0.00 W/m2
19:04 17.3 °F /  -8.2 °C 12.7 °F /  -10.7 °C 30.54in /  1034.1hPa SE 5mph /  8km/h 7mph /  11.3km/h 82% 0in /  0mm 0.00 W/m2
19:09 17.3 °F /  -8.2 °C 12.7 °F /  -10.7 °C 30.54in /  1034.1hPa SE 6mph /  9.7km/h 7mph /  11.3km/h 82% 0in /  0mm 0.00 W/m2
19:14 17.3 °F /  -8.2 °C 12.7 °F /  -10.7 °C 30.54in /  1034.1hPa SE 5mph /  8km/h 9mph /  14.5km/h 82% 0in /  0mm 0.00 W/m2
19:19 17.4 °F /  -8.1 °C 12.8 °F /  -10.7 °C 30.55in /  1034.4hPa SE 6mph /  9.7km/h 9mph /  14.5km/h 82% 0in /  0mm 0.00 W/m2
19:24 17.4 °F /  -8.1 °C 12.8 °F /  -10.7 °C 30.54in /  1034.1hPa SE 6mph /  9.7km/h 9mph /  14.5km/h 82% 0in /  0mm 0.00 W/m2
19:29 17.5 °F /  -8.1 °C 12.9 °F /  -10.6 °C 30.54in /  1034.1hPa ESE 8mph /  12.9km/h 9mph /  14.5km/h 82% 0in /  0mm 0.00 W/m2
19:34 17.7 °F /  -7.9 °C 13.1 °F /  -10.5 °C 30.54in /  1034.1hPa ESE 7mph /  11.3km/h 9mph /  14.5km/h 82% 0in /  0mm 0.00 W/m2
19:39 17.9 °F /  -7.8 °C 13.3 °F /  -10.4 °C 30.54in /  1034.1hPa ESE 5mph /  8km/h 9mph /  14.5km/h 82% 0in /  0mm 0.00 W/m2
19:44 18 °F /  -7.8 °C 13.4 °F /  -10.3 °C 30.54in /  1034.1hPa ESE 7mph /  11.3km/h 10mph /  16.1km/h 82% 0in /  0mm 0.00 W/m2
19:49 17.8 °F /  -7.9 °C 13.2 °F /  -10.4 °C 30.54in /  1034.1hPa ESE 8mph /  12.9km/h 10mph /  16.1km/h 82% 0in /  0mm 0.00 W/m2
19:54 17.6 °F /  -8 °C 13 °F /  -10.6 °C 30.53in /  1033.7hPa ESE 7mph /  11.3km/h 10mph /  16.1km/h 82% 0in /  0mm 0.00 W/m2
19:59 17.5 °F /  -8.1 °C 12.9 °F /  -10.6 °C 30.53in /  1033.7hPa SE 7mph /  11.3km/h 10mph /  16.1km/h 82% 0in /  0mm 0.00 W/m2
20:04 17.4 °F /  -8.1 °C 12.8 °F /  -10.7 °C 30.53in /  1033.7hPa ESE 4mph /  6.4km/h 10mph /  16.1km/h 82% 0in /  0mm 0.00 W/m2
20:09 17.3 °F /  -8.2 °C 13 °F /  -10.6 °C 30.54in /  1034.1hPa ESE 7mph /  11.3km/h 9mph /  14.5km/h 83% 0in /  0mm 0.00 W/m2
20:14 17.4 °F /  -8.1 °C 13.1 °F /  -10.5 °C 30.53in /  1033.7hPa ESE 8mph /  12.9km/h 9mph /  14.5km/h 83% 0in /  0mm 0.00 W/m2
20:19 17.4 °F /  -8.1 °C 13.1 °F /  -10.5 °C 30.53in /  1033.7hPa ESE 9mph /  14.5km/h 10mph /  16.1km/h 83% 0in /  0mm 0.00 W/m2
20:24 17.3 °F /  -8.2 °C 13 °F /  -10.6 °C 30.53in /  1033.7hPa ESE 7mph /  11.3km/h 10mph /  16.1km/h 83% 0in /  0mm 0.00 W/m2
20:29 17.1 °F /  -8.3 °C 12.8 °F /  -10.7 °C 30.53in /  1033.7hPa ESE 7mph /  11.3km/h 10mph /  16.1km/h 83% 0in /  0mm 0.00 W/m2
20:34 16.8 °F /  -8.4 °C 12.5 °F /  -10.8 °C 30.53in /  1033.7hPa ESE 7mph /  11.3km/h 10mph /  16.1km/h 83% 0in /  0mm 0.00 W/m2
20:39 16.6 °F /  -8.6 °C 12.3 °F /  -10.9 °C 30.53in /  1033.7hPa ESE 7mph /  11.3km/h 9mph /  14.5km/h 83% 0in /  0mm 0.00 W/m2
20:44 16.5 °F /  -8.6 °C 12.5 °F /  -10.8 °C 30.53in /  1033.7hPa SE 7mph /  11.3km/h 10mph /  16.1km/h 84% 0in /  0mm 0.00 W/m2
20:49 16.3 °F /  -8.7 °C 12.3 °F /  -10.9 °C 30.53in /  1033.7hPa ESE 7mph /  11.3km/h 10mph /  16.1km/h 84% 0in /  0mm 0.00 W/m2
20:54 16.2 °F /  -8.8 °C 12.2 °F /  -11 °C 30.53in /  1033.7hPa ESE 5mph /  8km/h 10mph /  16.1km/h 84% 0in /  0mm 0.00 W/m2
20:59 16.2 °F /  -8.8 °C 12.2 °F /  -11 °C 30.53in /  1033.7hPa SE 7mph /  11.3km/h 10mph /  16.1km/h 84% 0in /  0mm 0.00 W/m2
21:04 16.2 °F /  -8.8 °C 12.5 °F /  -10.8 °C 30.53in /  1033.7hPa ESE 10mph /  16.1km/h 10mph /  16.1km/h 85% 0in /  0mm 0.00 W/m2
21:09 16.4 °F /  -8.7 °C 12.7 °F /  -10.7 °C 30.53in /  1033.7hPa ESE 5mph /  8km/h 11mph /  17.7km/h 85% 0in /  0mm 0.00 W/m2
21:14 16.5 °F /  -8.6 °C 12.8 °F /  -10.7 °C 30.53in /  1033.7hPa SE 8mph /  12.9km/h 11mph /  17.7km/h 85% 0in /  0mm 0.00 W/m2
21:19 16.6 °F /  -8.6 °C 12.9 °F /  -10.6 °C 30.53in /  1033.7hPa ESE 9mph /  14.5km/h 10mph /  16.1km/h 85% 0in /  0mm 0.00 W/m2
21:24 16.6 °F /  -8.6 °C 12.9 °F /  -10.6 °C 30.53in /  1033.7hPa SE 7mph /  11.3km/h 10mph /  16.1km/h 85% 0in /  0mm 0.00 W/m2
21:29 16.3 °F /  -8.7 °C 12.6 °F /  -10.8 °C 30.53in /  1033.7hPa ESE 9mph /  14.5km/h 10mph /  16.1km/h 85% 0in /  0mm 0.00 W/m2
21:34 16.3 °F /  -8.7 °C 12.8 °F /  -10.7 °C 30.53in /  1033.7hPa SE 7mph /  11.3km/h 9mph /  14.5km/h 86% 0in /  0mm 0.00 W/m2
21:39 16.2 °F /  -8.8 °C 12.7 °F /  -10.7 °C 30.53in /  1033.7hPa SE 5mph /  8km/h 9mph /  14.5km/h 86% 0in /  0mm 0.00 W/m2
21:44 16.3 °F /  -8.7 °C 12.8 °F /  -10.7 °C 30.53in /  1033.7hPa ESE 9mph /  14.5km/h 9mph /  14.5km/h 86% 0in /  0mm 0.00 W/m2
21:49 16.5 °F /  -8.6 °C 13 °F /  -10.6 °C 30.53in /  1033.7hPa SE 8mph /  12.9km/h 10mph /  16.1km/h 86% 0in /  0mm 0.00 W/m2
21:54 16.6 °F /  -8.6 °C 13.1 °F /  -10.5 °C 30.52in /  1033.4hPa SE 9mph /  14.5km/h 10mph /  16.1km/h 86% 0in /  0mm 0.00 W/m2
21:59 16.7 °F /  -8.5 °C 13.2 °F /  -10.4 °C 30.52in /  1033.4hPa SE 8mph /  12.9km/h 10mph /  16.1km/h 86% 0in /  0mm 0.00 W/m2
22:04 16.5 °F /  -8.6 °C 13 °F /  -10.6 °C 30.52in /  1033.4hPa ESE 8mph /  12.9km/h 11mph /  17.7km/h 86% 0in /  0mm 0.00 W/m2
22:09 16.3 °F /  -8.7 °C 12.8 °F /  -10.7 °C 30.52in /  1033.4hPa SE 7mph /  11.3km/h 11mph /  17.7km/h 86% 0in /  0mm 0.00 W/m2
22:14 16.2 °F /  -8.8 °C 12.7 °F /  -10.7 °C 30.52in /  1033.4hPa SE 6mph /  9.7km/h 10mph /  16.1km/h 86% 0in /  0mm 0.00 W/m2
22:19 16 °F /  -8.9 °C 12.6 °F /  -10.8 °C 30.52in /  1033.4hPa SE 8mph /  12.9km/h 10mph /  16.1km/h 86% 0in /  0mm 0.00 W/m2
22:24 15.9 °F /  -8.9 °C 12.5 °F /  -10.8 °C 30.52in /  1033.4hPa SE 6mph /  9.7km/h 10mph /  16.1km/h 86% 0in /  0mm 0.00 W/m2
22:29 15.8 °F /  -9 °C 12.4 °F /  -10.9 °C 30.52in /  1033.4hPa ESE 8mph /  12.9km/h 9mph /  14.5km/h 86% 0in /  0mm 0.00 W/m2
22:34 15.9 °F /  -8.9 °C 12.7 °F /  -10.7 °C 30.52in /  1033.4hPa ESE 7mph /  11.3km/h 9mph /  14.5km/h 87% 0in /  0mm 0.00 W/m2
22:39 16 °F /  -8.9 °C 12.8 °F /  -10.7 °C 30.52in /  1033.4hPa ESE 8mph /  12.9km/h 11mph /  17.7km/h 87% 0in /  0mm 0.00 W/m2
22:44 16 °F /  -8.9 °C 12.8 °F /  -10.7 °C 30.52in /  1033.4hPa SE 8mph /  12.9km/h 11mph /  17.7km/h 87% 0in /  0mm 0.00 W/m2
22:49 16 °F /  -8.9 °C 12.8 °F /  -10.7 °C 30.52in /  1033.4hPa SE 8mph /  12.9km/h 11mph /  17.7km/h 87% 0in /  0mm 0.00 W/m2
22:54 16 °F /  -8.9 °C 12.8 °F /  -10.7 °C 30.52in /  1033.4hPa ESE 9mph /  14.5km/h 11mph /  17.7km/h 87% 0in /  0mm 0.00 W/m2
22:59 16 °F /  -8.9 °C 12.8 °F /  -10.7 °C 30.52in /  1033.4hPa SE 7mph /  11.3km/h 11mph /  17.7km/h 87% 0in /  0mm 0.00 W/m2
23:04 15.9 °F /  -8.9 °C 12.7 °F /  -10.7 °C 30.52in /  1033.4hPa SE 7mph /  11.3km/h 10mph /  16.1km/h 87% 0in /  0mm 0.00 W/m2
23:09 15.8 °F /  -9 °C 12.6 °F /  -10.8 °C 30.52in /  1033.4hPa SE 7mph /  11.3km/h 10mph /  16.1km/h 87% 0in /  0mm 0.00 W/m2
23:14 15.7 °F /  -9.1 °C 12.5 °F /  -10.8 °C 30.52in /  1033.4hPa SE 7mph /  11.3km/h 11mph /  17.7km/h 87% 0in /  0mm 0.00 W/m2
23:19 15.8 °F /  -9 °C 12.6 °F /  -10.8 °C 30.52in /  1033.4hPa SE 6mph /  9.7km/h 11mph /  17.7km/h 87% 0in /  0mm 0.00 W/m2
23:24 15.8 °F /  -9 °C 12.6 °F /  -10.8 °C 30.52in /  1033.4hPa SE 8mph /  12.9km/h 11mph /  17.7km/h 87% 0in /  0mm 0.00 W/m2
23:29 15.7 °F /  -9.1 °C 12.5 °F /  -10.8 °C 30.52in /  1033.4hPa SE 6mph /  9.7km/h 10mph /  16.1km/h 87% 0in /  0mm 0.00 W/m2
23:34 15.4 °F /  -9.2 °C 12.2 °F /  -11 °C 30.52in /  1033.4hPa SE 7mph /  11.3km/h 10mph /  16.1km/h 87% 0in /  0mm 0.00 W/m2
23:39 15.3 °F /  -9.3 °C 12.1 °F /  -11.1 °C 30.52in /  1033.4hPa SE 6mph /  9.7km/h 9mph /  14.5km/h 87% 0in /  0mm 0.00 W/m2
23:44 15.4 °F /  -9.2 °C 12.2 °F /  -11 °C 30.52in /  1033.4hPa ESE 5mph /  8km/h 9mph /  14.5km/h 87% 0in /  0mm 0.00 W/m2
23:49 15.5 °F /  -9.2 °C 12.3 °F /  -10.9 °C 30.52in /  1033.4hPa ESE 5mph /  8km/h 8mph /  12.9km/h 87% 0in /  0mm 0.00 W/m2
23:54 15.2 °F /  -9.3 °C 12 °F /  -11.1 °C 30.51in /  1033.1hPa ESE 7mph /  11.3km/h 8mph /  12.9km/h 87% 0in /  0mm 0.00 W/m2
23:59 15 °F /  -9.4 °C 11.8 °F /  -11.2 °C 30.51in /  1033.1hPa ESE 5mph /  8km/h 8mph /  12.9km/h 87% 0in /  0mm 0.00 W/m2
Bismarck, North Dakota, USA
Compliments of Weather Underground - 4 mb